Time;durP1;ratioP1;P1;durP2;ratioP2;P2;SDS_P1;SDS_P2;PMS_P1;PMS_P2;Temp;Humidity;BMP_temperature;BMP_pressure;BME280_temperature;BME280_humidity;BME280_pressure;Samples;Min_cycle;Max_cycle;Signal;HPM_P1;HPM_P2
2022/12/24 00:01:11;;;;;;;27.98;17.17;;;;;;;;;;5064572;28;20566;-73
2022/12/24 00:03:38;;;;;;;25.65;17.65;;;;;;;;;;5068955;28;20127;-72
2022/12/24 00:06:08;;;;;;;24.38;17.73;;;;;;;;;;5076696;28;20049;-72
2022/12/24 00:08:34;;;;;;;27.50;18.48;;;;;;;;;;5063021;28;20404;-72
2022/12/24 00:11:00;;;;;;;25.70;17.50;;;;;;;;;;5062795;28;20040;-72
2022/12/24 00:13:26;;;;;;;26.63;17.02;;;;;;;;;;5073984;28;20041;-72
2022/12/24 00:15:52;;;;;;;29.55;18.45;;;;;;;;;;5081926;28;20044;-72
2022/12/24 00:18:18;;;;;;;28.13;18.45;;;;;;;;;;5072278;28;20510;-72
2022/12/24 00:20:46;;;;;;;26.75;17.73;;;;;;;;;;5074734;28;20048;-73
2022/12/24 00:23:12;;;;;;;27.48;19.25;;;;;;;;;;5060886;28;20557;-73
2022/12/24 00:25:38;;;;;;;27.35;18.95;;;;;;;;;;5067274;28;20048;-73
2022/12/24 00:28:04;;;;;;;25.95;18.25;;;;;;;;;;5067139;28;20045;-72
2022/12/24 00:30:30;;;;;;;25.23;17.85;;;;;;;;;;5064961;28;20075;-73
2022/12/24 00:32:56;;;;;;;26.90;19.00;;;;;;;;;;5063382;28;20395;-72
2022/12/24 00:35:22;;;;;;;31.40;19.67;;;;;;;;;;5062962;28;20492;-74
2022/12/24 00:37:49;;;;;;;25.83;18.00;;;;;;;;;;5063037;28;20496;-74
2022/12/24 00:40:16;;;;;;;28.33;18.70;;;;;;;;;;5066554;28;20070;-74
2022/12/24 00:42:42;;;;;;;28.20;19.40;;;;;;;;;;5068342;28;20044;-74
2022/12/24 00:45:09;;;;;;;28.83;19.90;;;;;;;;;;5064267;28;20520;-73
2022/12/24 00:47:35;;;;;;;25.83;18.15;;;;;;;;;;5064000;28;20124;-73
2022/12/24 00:50:01;;;;;;;26.48;18.70;;;;;;;;;;5063117;28;20465;-74
2022/12/24 00:52:27;;;;;;;25.40;17.52;;;;;;;;;;5069778;28;20044;-74
2022/12/24 00:54:53;;;;;;;28.58;18.42;;;;;;;;;;5074779;28;20044;-74
2022/12/24 00:57:19;;;;;;;29.77;19.85;;;;;;;;;;5066373;28;20468;-74
2022/12/24 00:59:45;;;;;;;27.10;18.70;;;;;;;;;;5062808;28;20049;-74
2022/12/24 01:02:11;;;;;;;27.52;18.52;;;;;;;;;;5063387;28;20048;-74
2022/12/24 01:07:22;;;;;;;25.52;18.60;;;;;;;;;;5060940;28;20135;-74
2022/12/24 01:09:48;;;;;;;23.88;17.45;;;;;;;;;;5061847;28;20048;-74
2022/12/24 01:12:14;;;;;;;23.13;15.77;;;;;;;;;;5058685;28;20093;-74
2022/12/24 01:14:40;;;;;;;25.08;16.63;;;;;;;;;;5065210;28;20085;-74
2022/12/24 01:17:06;;;;;;;21.30;15.10;;;;;;;;;;5059061;28;20439;-74
2022/12/24 01:19:32;;;;;;;22.38;14.88;;;;;;;;;;5063945;28;20029;-74
2022/12/24 01:21:58;;;;;;;22.65;15.07;;;;;;;;;;5062691;28;20132;-74
2022/12/24 01:24:27;;;;;;;23.27;15.02;;;;;;;;;;5063439;28;20075;-74
2022/12/24 01:26:53;;;;;;;18.20;14.18;;;;;;;;;;5063016;28;20055;-74
2022/12/24 01:29:19;;;;;;;19.23;13.50;;;;;;;;;;5064508;28;20447;-74
2022/12/24 01:31:45;;;;;;;20.50;13.95;;;;;;;;;;5067293;28;20119;-74
2022/12/24 01:34:11;;;;;;;17.33;12.57;;;;;;;;;;5064624;28;20475;-74
2022/12/24 01:36:37;;;;;;;18.15;13.18;;;;;;;;;;5069255;28;20139;-74
2022/12/24 01:39:04;;;;;;;19.15;13.80;;;;;;;;;;5071234;28;20084;-74
2022/12/24 01:44:25;;;;;;;18.77;13.48;;;;;;;;;;5070324;28;20480;-74
2022/12/24 01:46:53;;;;;;;18.42;13.65;;;;;;;;;;5066889;28;20064;-73
2022/12/24 01:49:18;;;;;;;18.02;13.00;;;;;;;;;;5067928;28;20048;-74
2022/12/24 01:51:50;;;;;;;19.05;12.30;;;;;;;;;;5067479;28;20049;-73
2022/12/24 01:54:28;;;;;;;15.30;10.55;;;;;;;;;;5057102;28;20032;-74
2022/12/24 01:56:57;;;;;;;15.18;10.98;;;;;;;;;;5069694;28;20094;-74
2022/12/24 01:59:23;;;;;;;14.63;9.68;;;;;;;;;;5069658;28;20044;-73
2022/12/24 02:01:50;;;;;;;17.88;10.95;;;;;;;;;;5063436;28;20043;-73
2022/12/24 02:04:25;;;;;;;15.32;10.52;;;;;;;;;;5062573;28;20048;-74
2022/12/24 02:06:51;;;;;;;16.60;10.88;;;;;;;;;;5066882;28;20044;-73
2022/12/24 02:09:17;;;;;;;15.93;10.63;;;;;;;;;;5058885;28;20480;-74
2022/12/24 02:11:43;;;;;;;17.23;9.32;;;;;;;;;;5065810;28;20033;-74
2022/12/24 02:14:10;;;;;;;17.15;9.63;;;;;;;;;;5064117;28;20060;-73
2022/12/24 02:16:42;;;;;;;17.10;10.27;;;;;;;;;;5066927;28;20097;-74
2022/12/24 02:19:11;;;;;;;17.75;8.45;;;;;;;;;;5064576;28;20052;-74
2022/12/24 02:21:37;;;;;;;14.10;7.88;;;;;;;;;;5062076;28;20113;-74
2022/12/24 02:24:09;;;;;;;18.98;7.28;;;;;;;;;;5063122;28;20040;-73
2022/12/24 02:26:38;;;;;;;15.23;5.85;;;;;;;;;;5059680;28;20059;-73
2022/12/24 02:29:25;;;;;;;12.00;4.70;;;;;;;;;;5065107;28;20093;-74
2022/12/24 02:32:08;;;;;;;11.18;4.65;;;;;;;;;;5064026;28;20369;-74
2022/12/24 02:34:34;;;;;;;;;;;;;;;;;;5066563;28;20484;-73
2022/12/24 02:37:06;;;;;;;12.10;5.13;;;;;;;;;;5066793;28;19920;-73
2022/12/24 02:39:41;;;;;;;12.93;5.28;;;;;;;;;;5065988;28;20574;-74
2022/12/24 02:42:08;;;;;;;14.45;5.18;;;;;;;;;;5057615;28;20068;-73
2022/12/24 02:44:38;;;;;;;16.10;5.85;;;;;;;;;;5055259;28;20157;-74
2022/12/24 02:47:06;;;;;;;19.33;6.05;;;;;;;;;;5068899;28;20045;-73
2022/12/24 02:49:32;;;;;;;15.93;5.95;;;;;;;;;;5068245;28;20059;-74
2022/12/24 02:51:58;;;;;;;23.05;7.05;;;;;;;;;;5069910;28;20044;-73
2022/12/24 02:54:24;;;;;;;14.38;5.70;;;;;;;;;;5062416;28;20045;-74
2022/12/24 02:56:50;;;;;;;20.33;7.25;;;;;;;;;;5067429;28;20126;-74
2022/12/24 02:59:25;;;;;;;16.50;5.80;;;;;;;;;;5071896;28;20079;-74
2022/12/24 03:02:07;;;;;;;17.92;6.22;;;;;;;;;;5071291;28;20048;-74
2022/12/24 03:04:46;;;;;;;15.23;6.13;;;;;;;;;;5071622;28;20492;-74
2022/12/24 03:07:14;;;;;;;14.93;6.05;;;;;;;;;;5068757;28;20040;-74
2022/12/24 03:09:50;;;;;;;17.10;6.03;;;;;;;;;;5064290;28;20052;-74
2022/12/24 03:12:39;;;;;;;18.45;5.80;;;;;;;;;;5060834;28;20064;-74
2022/12/24 03:15:11;;;;;;;20.30;6.90;;;;;;;;;;5050463;28;20499;-73
2022/12/24 03:17:38;;;;;;;23.27;7.10;;;;;;;;;;5060406;28;20044;-74
2022/12/24 03:20:05;;;;;;;21.15;6.90;;;;;;;;;;5059792;28;21862;-73
2022/12/24 03:22:33;;;;;;;21.15;7.50;;;;;;;;;;5060269;28;20047;-74
2022/12/24 03:24:59;;;;;;;22.50;7.30;;;;;;;;;;5056815;28;20114;-74
2022/12/24 03:27:26;;;;;;;22.15;7.35;;;;;;;;;;5058485;28;20037;-73
2022/12/24 03:29:53;;;;;;;26.20;7.05;;;;;;;;;;5065341;28;20378;-72
2022/12/24 03:32:23;;;;;;;22.25;7.82;;;;;;;;;;5061533;28;20087;-73
2022/12/24 03:34:49;;;;;;;32.47;7.32;;;;;;;;;;5062251;28;20052;-72
2022/12/24 03:37:15;;;;;;;32.47;7.85;;;;;;;;;;5067575;28;20060;-73
2022/12/24 03:39:41;;;;;;;33.42;7.45;;;;;;;;;;5067593;28;20055;-73
2022/12/24 03:42:07;;;;;;;26.88;6.82;;;;;;;;;;5066863;28;20041;-73
2022/12/24 03:44:33;;;;;;;31.80;7.43;;;;;;;;;;5059068;28;20052;-72
2022/12/24 03:46:59;;;;;;;32.88;7.03;;;;;;;;;;5064123;28;20396;-72
2022/12/24 03:49:25;;;;;;;33.97;6.68;;;;;;;;;;5064527;28;20060;-72
2022/12/24 03:51:51;;;;;;;29.05;6.55;;;;;;;;;;5060968;28;20127;-72
2022/12/24 03:54:17;;;;;;;32.13;6.32;;;;;;;;;;5061821;28;20480;-73
2022/12/24 03:56:43;;;;;;;30.02;7.15;;;;;;;;;;5065679;28;20044;-75
2022/12/24 03:59:09;;;;;;;39.92;7.05;;;;;;;;;;5063970;28;20048;-73
2022/12/24 04:01:35;;;;;;;29.92;7.18;;;;;;;;;;5066733;28;20129;-74
2022/12/24 04:04:01;;;;;;;37.00;6.57;;;;;;;;;;5063847;28;20102;-72
2022/12/24 04:06:27;;;;;;;36.85;7.03;;;;;;;;;;5065241;28;20135;-73
2022/12/24 04:08:53;;;;;;;29.15;6.32;;;;;;;;;;5059472;28;20128;-73
2022/12/24 04:11:19;;;;;;;37.97;7.85;;;;;;;;;;5058836;28;20081;-72
2022/12/24 04:13:45;;;;;;;28.10;7.38;;;;;;;;;;5059633;28;21692;-73
2022/12/24 04:16:12;;;;;;;27.83;6.85;;;;;;;;;;5058681;28;20048;-72
2022/12/24 04:18:39;;;;;;;40.63;7.57;;;;;;;;;;5058107;28;20420;-73
2022/12/24 04:21:05;;;;;;;42.80;7.60;;;;;;;;;;5056261;28;21351;-73
2022/12/24 04:23:31;;;;;;;40.03;7.72;;;;;;;;;;5059503;28;20097;-72
2022/12/24 04:26:01;;;;;;;34.40;7.97;;;;;;;;;;5055261;28;20481;-73
2022/12/24 04:28:31;;;;;;;44.33;8.85;;;;;;;;;;5058315;28;20645;-72
2022/12/24 04:30:58;;;;;;;41.28;8.93;;;;;;;;;;5058869;28;20117;-72
2022/12/24 04:33:24;;;;;;;37.53;9.48;;;;;;;;;;5064020;28;20580;-72
2022/12/24 04:35:50;;;;;;;49.17;8.57;;;;;;;;;;5059667;28;20147;-72
2022/12/24 04:38:19;;;;;;;31.77;7.60;;;;;;;;;;5066340;28;20079;-72
2022/12/24 04:40:45;;;;;;;37.25;8.15;;;;;;;;;;5061394;28;20408;-73
2022/12/24 04:43:11;;;;;;;36.30;7.70;;;;;;;;;;5063320;28;20052;-73
2022/12/24 04:45:38;;;;;;;42.20;8.50;;;;;;;;;;5061064;28;20044;-72
2022/12/24 04:48:04;;;;;;;38.08;8.07;;;;;;;;;;5063309;28;20049;-73
2022/12/24 04:50:30;;;;;;;37.95;8.23;;;;;;;;;;5061537;28;20058;-73
2022/12/24 04:52:56;;;;;;;35.28;7.32;;;;;;;;;;5059889;28;20048;-73
2022/12/24 04:55:22;;;;;;;39.95;8.20;;;;;;;;;;5059917;28;20064;-73
2022/12/24 04:57:48;;;;;;;37.17;7.53;;;;;;;;;;5065741;28;20126;-72
2022/12/24 05:00:14;;;;;;;42.17;7.78;;;;;;;;;;5067382;28;20095;-73
2022/12/24 05:02:40;;;;;;;39.58;9.27;;;;;;;;;;5067225;28;20040;-72
2022/12/24 05:05:06;;;;;;;34.55;7.32;;;;;;;;;;5065359;28;20053;-73
2022/12/24 05:07:35;;;;;;;46.85;8.38;;;;;;;;;;5072297;28;20115;-73
2022/12/24 05:10:01;;;;;;;41.08;7.70;;;;;;;;;;5062860;28;20131;-72
2022/12/24 05:12:27;;;;;;;52.63;9.73;;;;;;;;;;5071945;28;20036;-72
2022/12/24 05:14:53;;;;;;;46.15;8.23;;;;;;;;;;5071491;28;20044;-72
2022/12/24 05:17:19;;;;;;;40.38;9.32;;;;;;;;;;5062360;28;20044;-72
2022/12/24 05:19:45;;;;;;;39.50;9.15;;;;;;;;;;5073981;28;20127;-72
2022/12/24 05:27:40;;;;;;;31.90;6.22;;;;;;;;;;5066818;28;20052;-72
2022/12/24 05:30:07;;;;;;;40.30;7.50;;;;;;;;;;5075143;28;20049;-73
2022/12/24 05:32:33;;;;;;;35.03;7.82;;;;;;;;;;5065341;28;20051;-72
2022/12/24 05:34:59;;;;;;;32.28;6.88;;;;;;;;;;5069510;28;20044;-72
2022/12/24 05:37:25;;;;;;;41.28;8.20;;;;;;;;;;5063597;28;20052;-72
2022/12/24 05:39:51;;;;;;;29.45;6.63;;;;;;;;;;5069625;28;20518;-72
2022/12/24 05:42:17;;;;;;;31.70;6.32;;;;;;;;;;5062325;28;20048;-72
2022/12/24 05:44:43;;;;;;;36.85;7.03;;;;;;;;;;5065303;28;20044;-72
2022/12/24 05:47:09;;;;;;;36.05;7.70;;;;;;;;;;5065131;28;20404;-72
2022/12/24 05:49:35;;;;;;;35.70;7.00;;;;;;;;;;5068861;28;20055;-72
2022/12/24 05:52:04;;;;;;;32.95;6.75;;;;;;;;;;5065654;28;20041;-72
2022/12/24 05:54:30;;;;;;;38.15;7.88;;;;;;;;;;5068729;28;20049;-72
2022/12/24 05:56:56;;;;;;;35.92;7.05;;;;;;;;;;5068513;28;20048;-72
2022/12/24 05:59:22;;;;;;;42.58;7.60;;;;;;;;;;5067947;28;20038;-73
2022/12/24 06:01:48;;;;;;;52.20;7.57;;;;;;;;;;5062006;28;20123;-73
2022/12/24 06:04:14;;;;;;;40.25;7.03;;;;;;;;;;5068924;28;20461;-72
2022/12/24 06:06:40;;;;;;;33.42;6.43;;;;;;;;;;5071474;28;20076;-72
2022/12/24 06:09:06;;;;;;;28.70;7.05;;;;;;;;;;5065025;28;20050;-72
2022/12/24 06:11:32;;;;;;;31.58;6.65;;;;;;;;;;5062283;28;20044;-73
2022/12/24 06:13:58;;;;;;;43.13;7.03;;;;;;;;;;5063326;28;20051;-72
2022/12/24 06:16:25;;;;;;;33.03;7.22;;;;;;;;;;5060346;28;20090;-72
2022/12/24 06:18:51;;;;;;;31.92;7.32;;;;;;;;;;5064568;28;20119;-72
2022/12/24 06:21:17;;;;;;;30.92;6.03;;;;;;;;;;5062086;28;20040;-72
2022/12/24 06:23:44;;;;;;;28.75;7.03;;;;;;;;;;5069187;28;20036;-72
2022/12/24 06:26:15;;;;;;;27.90;7.03;;;;;;;;;;5062279;28;20076;-72
2022/12/24 06:28:41;;;;;;;33.40;6.72;;;;;;;;;;5065534;28;20055;-72
2022/12/24 06:31:10;;;;;;;42.20;7.85;;;;;;;;;;5062775;28;20043;-72
2022/12/24 06:33:36;;;;;;;32.75;6.28;;;;;;;;;;5063927;28;20541;-72
2022/12/24 06:36:05;;;;;;;34.80;7.47;;;;;;;;;;5064301;28;20131;-72
2022/12/24 06:38:31;;;;;;;32.65;6.60;;;;;;;;;;5064752;28;20040;-72
2022/12/24 06:40:57;;;;;;;38.92;7.05;;;;;;;;;;5062667;28;20043;-72
2022/12/24 06:43:23;;;;;;;35.22;6.65;;;;;;;;;;5062949;28;20442;-72
2022/12/24 06:45:49;;;;;;;31.30;6.28;;;;;;;;;;5063421;28;20052;-72
2022/12/24 06:48:16;;;;;;;29.67;6.75;;;;;;;;;;5059804;28;20033;-72
2022/12/24 06:50:42;;;;;;;36.83;6.90;;;;;;;;;;5066449;28;20507;-72
2022/12/24 06:53:08;;;;;;;33.63;7.03;;;;;;;;;;5063607;28;20496;-72
2022/12/24 06:55:34;;;;;;;27.52;6.90;;;;;;;;;;5063124;28;20127;-72
2022/12/24 06:58:00;;;;;;;43.72;7.72;;;;;;;;;;5063313;28;20411;-73
2022/12/24 07:00:26;;;;;;;38.72;6.55;;;;;;;;;;5063445;28;20055;-72
2022/12/24 07:02:52;;;;;;;37.72;7.72;;;;;;;;;;5063251;28;20048;-72
2022/12/24 07:05:18;;;;;;;37.13;6.38;;;;;;;;;;5064714;28;20404;-72
2022/12/24 07:07:44;;;;;;;38.20;8.20;;;;;;;;;;5064437;28;20055;-72
2022/12/24 07:10:11;;;;;;;38.03;7.78;;;;;;;;;;5063906;28;20044;-72
2022/12/24 07:12:37;;;;;;;37.90;7.13;;;;;;;;;;5061622;28;20045;-72
2022/12/24 07:15:04;;;;;;;34.22;7.25;;;;;;;;;;5068916;28;20564;-72
2022/12/24 07:17:30;;;;;;;33.95;7.05;;;;;;;;;;5065097;28;20084;-72
2022/12/24 07:19:56;;;;;;;39.85;7.40;;;;;;;;;;5065223;28;20048;-72
2022/12/24 07:22:22;;;;;;;34.70;6.90;;;;;;;;;;5067550;28;20051;-72
2022/12/24 07:24:51;;;;;;;39.95;7.25;;;;;;;;;;5066406;28;20621;-72
2022/12/24 07:27:17;;;;;;;33.00;7.38;;;;;;;;;;5069344;28;20044;-72
2022/12/24 07:29:43;;;;;;;38.08;7.28;;;;;;;;;;5061760;28;20086;-72
2022/12/24 07:32:09;;;;;;;34.65;7.88;;;;;;;;;;5064984;28;20052;-72
2022/12/24 07:34:38;;;;;;;39.13;6.63;;;;;;;;;;5067148;28;20040;-72
2022/12/24 07:37:04;;;;;;;36.30;7.35;;;;;;;;;;5063997;28;20107;-73
2022/12/24 07:39:30;;;;;;;38.53;7.40;;;;;;;;;;5061783;28;20047;-72
2022/12/24 07:41:56;;;;;;;35.80;7.25;;;;;;;;;;5063498;28;20575;-72
2022/12/24 07:44:22;;;;;;;35.25;7.43;;;;;;;;;;5061997;28;20041;-72
2022/12/24 07:46:48;;;;;;;41.17;7.40;;;;;;;;;;5058040;28;20410;-72
2022/12/24 07:49:14;;;;;;;35.22;7.65;;;;;;;;;;5061132;28;20132;-72
2022/12/24 07:51:41;;;;;;;45.35;7.43;;;;;;;;;;5058674;28;20052;-72
2022/12/24 07:54:07;;;;;;;39.17;7.82;;;;;;;;;;5060246;28;20165;-72
2022/12/24 07:56:33;;;;;;;30.70;6.22;;;;;;;;;;5064231;28;20041;-72
2022/12/24 07:58:59;;;;;;;32.75;6.97;;;;;;;;;;5061539;28;20048;-72
2022/12/24 08:01:25;;;;;;;36.28;7.53;;;;;;;;;;5058602;28;20041;-72
2022/12/24 08:03:53;;;;;;;36.00;7.50;;;;;;;;;;5060800;28;20507;-73
2022/12/24 08:06:19;;;;;;;37.15;7.18;;;;;;;;;;5060882;28;20051;-73
2022/12/24 08:08:45;;;;;;;34.92;5.90;;;;;;;;;;5064202;28;20041;-72
2022/12/24 08:11:11;;;;;;;30.92;6.60;;;;;;;;;;5061508;28;20093;-72
2022/12/24 08:13:38;;;;;;;28.13;6.47;;;;;;;;;;5066241;28;20040;-72
2022/12/24 08:16:04;;;;;;;30.95;7.55;;;;;;;;;;5062579;28;20036;-72
2022/12/24 08:18:30;;;;;;;33.83;6.38;;;;;;;;;;5065161;28;20175;-72
2022/12/24 08:20:56;;;;;;;34.25;8.10;;;;;;;;;;5062390;28;20044;-72
2022/12/24 08:23:22;;;;;;;31.67;6.25;;;;;;;;;;5065656;28;20064;-73
2022/12/24 08:25:48;;;;;;;34.80;8.35;;;;;;;;;;5068882;28;20131;-72
2022/12/24 08:28:15;;;;;;;38.22;7.45;;;;;;;;;;5061399;28;20047;-73
2022/12/24 08:30:41;;;;;;;31.33;6.18;;;;;;;;;;5066039;28;20502;-73
2022/12/24 08:33:07;;;;;;;32.72;6.25;;;;;;;;;;5067486;28;20052;-73
2022/12/24 08:35:33;;;;;;;34.13;7.05;;;;;;;;;;5067579;28;20127;-73
2022/12/24 08:38:00;;;;;;;40.28;6.97;;;;;;;;;;5069580;28;20137;-73
2022/12/24 08:40:26;;;;;;;31.80;7.22;;;;;;;;;;5063387;28;20045;-73
2022/12/24 08:42:52;;;;;;;25.85;6.45;;;;;;;;;;5070086;28;20136;-73
2022/12/24 08:45:18;;;;;;;33.22;6.57;;;;;;;;;;5069122;28;20131;-73
2022/12/24 08:47:44;;;;;;;31.25;5.90;;;;;;;;;;5066411;28;20040;-73
2022/12/24 08:50:11;;;;;;;31.77;6.97;;;;;;;;;;5069451;28;20044;-73
2022/12/24 08:52:37;;;;;;;28.15;6.18;;;;;;;;;;5072082;28;20440;-74
2022/12/24 08:55:03;;;;;;;23.80;5.88;;;;;;;;;;5060401;28;20511;-73
2022/12/24 08:57:29;;;;;;;34.63;6.60;;;;;;;;;;5068484;28;20051;-73
2022/12/24 08:59:55;;;;;;;26.15;5.93;;;;;;;;;;5065805;28;20052;-73
2022/12/24 09:02:21;;;;;;;34.42;8.23;;;;;;;;;;5071159;28;20102;-73
2022/12/24 09:04:48;;;;;;;44.50;13.02;;;;;;;;;;5072481;28;20036;-74
2022/12/24 09:07:14;;;;;;;32.83;6.40;;;;;;;;;;5071429;28;20040;-74
2022/12/24 09:09:40;;;;;;;37.47;7.38;;;;;;;;;;5071672;28;20043;-74
2022/12/24 09:12:06;;;;;;;34.85;7.05;;;;;;;;;;5073735;28;20040;-75
2022/12/24 09:14:32;;;;;;;33.38;6.57;;;;;;;;;;5068767;28;20049;-74
2022/12/24 09:16:58;;;;;;;37.25;6.43;;;;;;;;;;5070429;28;20094;-73
2022/12/24 09:19:25;;;;;;;30.88;6.18;;;;;;;;;;5064618;28;20378;-73
2022/12/24 09:21:51;;;;;;;34.70;6.85;;;;;;;;;;5074238;28;20107;-73
2022/12/24 09:24:17;;;;;;;32.85;6.50;;;;;;;;;;5062734;28;20468;-72
2022/12/24 09:26:44;;;;;;;31.15;7.30;;;;;;;;;;5070644;28;20048;-72
2022/12/24 09:29:11;;;;;;;32.47;6.78;;;;;;;;;;5064561;28;20102;-72
2022/12/24 09:31:37;;;;;;;27.77;6.57;;;;;;;;;;5070333;28;20508;-72
2022/12/24 09:34:03;;;;;;;32.08;7.15;;;;;;;;;;5069771;28;20082;-74
2022/12/24 09:36:31;;;;;;;34.35;6.93;;;;;;;;;;5064624;28;20052;-74
2022/12/24 09:38:57;;;;;;;35.00;7.35;;;;;;;;;;5063615;28;20098;-74
2022/12/24 09:41:36;;;;;;;25.83;6.28;;;;;;;;;;5068277;28;22137;-74
2022/12/24 09:44:05;;;;;;;33.30;7.43;;;;;;;;;;5070845;28;20044;-74
2022/12/24 09:46:34;;;;;;;32.75;7.28;;;;;;;;;;5069584;28;20052;-74
2022/12/24 09:49:05;;;;;;;29.02;6.15;;;;;;;;;;5060424;28;20056;-74
2022/12/24 09:51:35;;;;;;;40.65;7.72;;;;;;;;;;5061569;28;20055;-76
2022/12/24 09:54:01;;;;;;;28.48;6.75;;;;;;;;;;5066280;28;20388;-73
2022/12/24 09:56:30;;;;;;;29.83;7.22;;;;;;;;;;5068030;28;20033;-71
2022/12/24 09:58:59;;;;;;;32.50;7.55;;;;;;;;;;5067526;28;20080;-72
2022/12/24 10:01:25;;;;;;;29.10;6.55;;;;;;;;;;5064092;28;20044;-72
2022/12/24 10:03:51;;;;;;;23.60;5.47;;;;;;;;;;5064233;28;20131;-72
2022/12/24 10:06:19;;;;;;;29.38;6.32;;;;;;;;;;5068113;28;20039;-74
2022/12/24 10:09:02;;;;;;;32.38;6.30;;;;;;;;;;5065873;28;20058;-74
2022/12/24 10:11:43;;;;;;;40.80;6.47;;;;;;;;;;5060334;28;20044;-73
2022/12/24 10:14:23;;;;;;;32.13;6.88;;;;;;;;;;5060161;28;20403;-74
2022/12/24 10:16:55;;;;;;;34.72;5.88;;;;;;;;;;5062907;28;20496;-74
2022/12/24 10:19:24;;;;;;;28.45;7.35;;;;;;;;;;5066834;28;20098;-74
2022/12/24 10:22:03;;;;;;;40.03;7.32;;;;;;;;;;5063182;28;20117;-76
2022/12/24 10:24:33;;;;;;;28.75;6.75;;;;;;;;;;5063188;28;20056;-75
2022/12/24 10:27:06;;;;;;;31.20;6.47;;;;;;;;;;5061870;28;20128;-74
2022/12/24 10:29:36;;;;;;;30.55;6.18;;;;;;;;;;5059932;28;20032;-74
2022/12/24 10:32:08;;;;;;;37.22;7.57;;;;;;;;;;5066055;28;20040;-74
2022/12/24 10:34:44;;;;;;;28.35;6.38;;;;;;;;;;5061016;28;20116;-73
2022/12/24 10:37:15;;;;;;;23.40;5.50;;;;;;;;;;5069254;28;20045;-74
2022/12/24 10:39:42;;;;;;;21.58;5.15;;;;;;;;;;5060950;28;20559;-73
2022/12/24 10:42:08;;;;;;;26.13;6.22;;;;;;;;;;5067315;28;20048;-74
2022/12/24 10:44:34;;;;;;;33.13;6.20;;;;;;;;;;5064676;28;20040;-73
2022/12/24 10:47:01;;;;;;;31.20;6.38;;;;;;;;;;5064862;28;20055;-73
2022/12/24 10:49:27;;;;;;;25.67;6.32;;;;;;;;;;5065977;28;20041;-73
2022/12/24 10:51:57;;;;;;;29.55;8.23;;;;;;;;;;5058785;28;20128;-74
2022/12/24 10:54:27;;;;;;;33.85;8.73;;;;;;;;;;5064423;28;20044;-74
2022/12/24 10:56:57;;;;;;;26.25;7.05;;;;;;;;;;5062123;28;20503;-74
2022/12/24 10:59:39;;;;;;;26.63;7.43;;;;;;;;;;5059810;28;20063;-73
2022/12/24 11:02:40;;;;;;;30.48;6.63;;;;;;;;;;5066559;28;20392;-73
2022/12/24 11:05:26;;;;;;;23.83;5.38;;;;;;;;;;5033267;28;20038;-74
2022/12/24 11:08:25;;;;;;;26.63;7.38;;;;;;;;;;5065972;28;20045;-74
2022/12/24 11:11:11;;;;;;;27.65;5.93;;;;;;;;;;5038090;28;20048;-73
2022/12/24 11:13:43;;;;;;;24.42;5.80;;;;;;;;;;5062798;28;20045;-76
2022/12/24 11:16:12;;;;;;;30.58;5.88;;;;;;;;;;5060134;28;20044;-75
2022/12/24 11:18:43;;;;;;;29.92;5.82;;;;;;;;;;5064045;28;20037;-73
2022/12/24 11:21:09;;;;;;;41.90;11.25;;;;;;;;;;5059880;28;20052;-73
2022/12/24 11:23:36;;;;;;;36.88;11.85;;;;;;;;;;5057483;28;20427;-74
2022/12/24 11:26:02;;;;;;;35.05;5.47;;;;;;;;;;5060773;28;20128;-75
2022/12/24 11:28:31;;;;;;;31.35;6.55;;;;;;;;;;5064591;28;20559;-75
2022/12/24 11:31:02;;;;;;;25.50;5.63;;;;;;;;;;5056691;28;20064;-77
2022/12/24 11:33:30;;;;;;;24.33;4.63;;;;;;;;;;5065284;28;20044;-75
2022/12/24 11:35:57;;;;;;;23.52;5.80;;;;;;;;;;5068729;28;20123;-74
2022/12/24 11:38:28;;;;;;;23.23;5.25;;;;;;;;;;5063124;28;20040;-74
2022/12/24 11:41:05;;;;;;;20.95;5.07;;;;;;;;;;5065078;28;20098;-74
2022/12/24 11:43:45;;;;;;;24.10;5.15;;;;;;;;;;5061866;28;20049;-75
2022/12/24 11:46:21;;;;;;;22.58;6.53;;;;;;;;;;5063191;28;20052;-74
2022/12/24 11:48:48;;;;;;;21.35;5.25;;;;;;;;;;5059612;28;20119;-74
2022/12/24 11:51:40;;;;;;;28.95;5.32;;;;;;;;;;5061785;28;20048;-75
2022/12/24 11:54:06;;;;;;;22.23;5.35;;;;;;;;;;5059516;28;20064;-75
2022/12/24 11:56:35;;;;;;;22.85;7.05;;;;;;;;;;5065705;28;20044;-75
2022/12/24 11:59:05;;;;;;;22.65;5.82;;;;;;;;;;5067083;28;20056;-75
2022/12/24 12:01:31;;;;;;;23.27;5.43;;;;;;;;;;5065548;28;20037;-74
2022/12/24 12:03:59;;;;;;;24.05;5.82;;;;;;;;;;5063281;28;20059;-75
2022/12/24 12:06:25;;;;;;;24.48;5.15;;;;;;;;;;5060374;28;20127;-75
2022/12/24 12:08:54;;;;;;;20.10;5.00;;;;;;;;;;5065153;28;20040;-75
2022/12/24 12:11:21;;;;;;;24.33;5.40;;;;;;;;;;5063157;28;20047;-75
2022/12/24 12:13:47;;;;;;;24.83;6.78;;;;;;;;;;5059945;28;20048;-75
2022/12/24 12:16:17;;;;;;;22.13;5.07;;;;;;;;;;5064356;28;20068;-75
2022/12/24 12:18:46;;;;;;;16.40;4.78;;;;;;;;;;5061975;28;20046;-74
2022/12/24 12:21:21;;;;;;;25.83;5.35;;;;;;;;;;5061801;28;20131;-75
2022/12/24 12:23:57;;;;;;;20.27;5.30;;;;;;;;;;5056245;28;20037;-74
2022/12/24 12:26:28;;;;;;;25.48;4.57;;;;;;;;;;5064587;28;20041;-75
2022/12/24 12:29:26;;;;;;;27.98;6.28;;;;;;;;;;5061114;28;20663;-75
2022/12/24 12:31:55;;;;;;;21.70;5.68;;;;;;;;;;5027848;28;20059;-75
2022/12/24 12:34:24;;;;;;;21.15;6.38;;;;;;;;;;5064796;28;20040;-75
2022/12/24 12:36:52;;;;;;;23.58;5.50;;;;;;;;;;5062962;28;20079;-75
2022/12/24 12:39:18;;;;;;;21.63;5.57;;;;;;;;;;5060761;28;20072;-74
2022/12/24 12:41:54;;;;;;;19.67;4.93;;;;;;;;;;5052610;28;20316;-73
2022/12/24 12:44:35;;;;;;;17.95;4.97;;;;;;;;;;5062039;28;20044;-75
2022/12/24 12:47:20;;;;;;;20.73;4.65;;;;;;;;;;5065886;28;20045;-75
2022/12/24 12:49:52;;;;;;;16.73;4.63;;;;;;;;;;5064098;28;20052;-75
2022/12/24 12:52:18;;;;;;;20.27;4.82;;;;;;;;;;5062231;28;20111;-75
2022/12/24 12:54:59;;;;;;;22.73;5.50;;;;;;;;;;5066441;28;20048;-75
2022/12/24 12:57:27;;;;;;;23.85;5.43;;;;;;;;;;5067489;28;21668;-75
2022/12/24 13:00:01;;;;;;;21.10;4.78;;;;;;;;;;5059369;28;20041;-74
2022/12/24 13:02:46;;;;;;;21.77;4.60;;;;;;;;;;5062905;28;20045;-74
2022/12/24 13:05:24;;;;;;;25.73;4.82;;;;;;;;;;5065778;28;20060;-75
2022/12/24 13:07:50;;;;;;;17.25;4.47;;;;;;;;;;5063049;28;20225;-75
2022/12/24 13:10:25;;;;;;;15.25;4.43;;;;;;;;;;5063019;28;20040;-74
2022/12/24 13:12:51;;;;;;;22.27;5.10;;;;;;;;;;5064789;28;20385;-75
2022/12/24 13:15:26;;;;;;;19.80;4.68;;;;;;;;;;5062575;28;20044;-75
2022/12/24 13:17:58;;;;;;;18.17;4.75;;;;;;;;;;5061077;28;20044;-75
2022/12/24 13:20:24;;;;;;;15.70;4.90;;;;;;;;;;5059127;28;20385;-75
2022/12/24 13:22:50;;;;;;;12.30;3.58;;;;;;;;;;5070446;28;20098;-75
2022/12/24 13:25:27;;;;;;;19.65;4.90;;;;;;;;;;5066297;28;22127;-75
2022/12/24 13:27:53;;;;;;;18.23;4.85;;;;;;;;;;5064919;28;20047;-75
2022/12/24 13:30:31;;;;;;;19.38;5.28;;;;;;;;;;5064635;28;20076;-75
2022/12/24 13:32:57;;;;;;;12.27;4.80;;;;;;;;;;5065165;28;20043;-75
2022/12/24 13:35:23;;;;;;;24.35;7.63;;;;;;;;;;5061645;28;20455;-74
2022/12/24 13:37:50;;;;;;;31.88;12.60;;;;;;;;;;5068305;28;20045;-75
2022/12/24 13:40:16;;;;;;;29.00;7.97;;;;;;;;;;5065000;28;20036;-75
2022/12/24 13:42:51;;;;;;;15.98;5.63;;;;;;;;;;5070782;28;20055;-74
2022/12/24 13:45:30;;;;;;;19.80;5.28;;;;;;;;;;5061474;28;20055;-75
2022/12/24 13:47:56;;;;;;;22.25;5.85;;;;;;;;;;5059285;28;20481;-74
2022/12/24 13:50:24;;;;;;;22.40;5.10;;;;;;;;;;5064763;28;20083;-74
2022/12/24 13:52:53;;;;;;;26.02;5.80;;;;;;;;;;5064709;28;20040;-75
2022/12/24 13:55:19;;;;;;;23.08;4.97;;;;;;;;;;5068061;28;20437;-75
2022/12/24 13:57:52;;;;;;;21.88;5.78;;;;;;;;;;5057996;28;20056;-75
2022/12/24 14:00:21;;;;;;;20.13;4.35;;;;;;;;;;5067141;28;20045;-74
2022/12/24 14:02:56;;;;;;;24.55;5.95;;;;;;;;;;5066519;28;20032;-74
2022/12/24 14:05:27;;;;;;;15.90;4.82;;;;;;;;;;5065079;28;20067;-75
2022/12/24 14:07:53;;;;;;;19.92;7.65;;;;;;;;;;5063374;28;20051;-75
2022/12/24 14:10:22;;;;;;;28.25;9.43;;;;;;;;;;5067108;28;20281;-75
2022/12/24 14:12:49;;;;;;;17.55;5.40;;;;;;;;;;5064958;28;20476;-74
2022/12/24 14:15:34;;;;;;;18.67;5.00;;;;;;;;;;5064275;28;20052;-74
2022/12/24 14:18:01;;;;;;;19.05;4.18;;;;;;;;;;5060817;28;20041;-74
2022/12/24 14:20:27;;;;;;;25.48;5.28;;;;;;;;;;5065909;28;20118;-75
2022/12/24 14:22:53;;;;;;;22.33;5.43;;;;;;;;;;5063866;28;20129;-74
2022/12/24 14:25:23;;;;;;;18.65;5.15;;;;;;;;;;5058687;28;20053;-75
2022/12/24 14:28:02;;;;;;;25.45;4.95;;;;;;;;;;5062601;28;20056;-74
2022/12/24 14:30:29;;;;;;;19.13;4.97;;;;;;;;;;5063784;28;20111;-74
2022/12/24 14:32:55;;;;;;;15.43;4.85;;;;;;;;;;5066376;28;20186;-75
2022/12/24 14:35:21;;;;;;;16.77;4.60;;;;;;;;;;5062900;28;20144;-75
2022/12/24 14:37:56;;;;;;;25.50;5.30;;;;;;;;;;5064502;28;20514;-75
2022/12/24 14:40:25;;;;;;;21.65;5.13;;;;;;;;;;5067309;28;20048;-73
2022/12/24 14:42:58;;;;;;;21.10;4.32;;;;;;;;;;5067810;28;20037;-73
2022/12/24 14:45:24;;;;;;;19.48;5.45;;;;;;;;;;5066366;28;20097;-73
2022/12/24 14:48:09;;;;;;;36.40;12.93;;;;;;;;;;5066684;28;20434;-73